Terminal Aerodrome Forecast
Issued by NWS Wilmington, NC

Home | Current Version | Previous Version | Text Only | Print | Product List | Glossary On
Versions: 1 2 3 4 5 6 7 8 9 10 11 12 13 14 15
000
FTUS42 KILM 271700
TAFMYR
TAF
KMYR 271722Z 2718/2818 02011G15KT P6SM SKC
     FM271900 05010KT P6SM SKC
     FM280000 VRB04KT P6SM SKC
     FM281500 27006KT P6SM SKC=

USA.gov is the U.S. government's official web portal to all federal, state and local government web resources and services.